sensor_id;sensor_type;location;lat;lon;timestamp;P1;durP1;ratioP1;P2;durP2;ratioP2
22015;SDS011;11172;51.698;-0.292;2022-09-09T00:02:27;16.70;;;4.13;;
22015;SDS011;11172;51.698;-0.292;2022-09-09T00:05:04;19.33;;;3.42;;
22015;SDS011;11172;51.698;-0.292;2022-09-09T00:07:48;14.27;;;3.53;;
22015;SDS011;11172;51.698;-0.292;2022-09-09T00:13:25;14.43;;;3.58;;
22015;SDS011;11172;51.698;-0.292;2022-09-09T00:18:15;10.05;;;3.38;;
22015;SDS011;11172;51.698;-0.292;2022-09-09T00:20:54;12.80;;;2.63;;
22015;SDS011;11172;51.698;-0.292;2022-09-09T00:23:29;6.93;;;2.63;;
22015;SDS011;11172;51.698;-0.292;2022-09-09T00:26:01;16.65;;;3.40;;
22015;SDS011;11172;51.698;-0.292;2022-09-09T00:28:28;15.45;;;3.33;;
22015;SDS011;11172;51.698;-0.292;2022-09-09T00:30:57;11.07;;;3.15;;
22015;SDS011;11172;51.698;-0.292;2022-09-09T00:33:26;8.35;;;2.67;;
22015;SDS011;11172;51.698;-0.292;2022-09-09T00:35:58;17.92;;;4.10;;
22015;SDS011;11172;51.698;-0.292;2022-09-09T00:38:26;13.90;;;2.80;;
22015;SDS011;11172;51.698;-0.292;2022-09-09T00:43:32;8.10;;;3.00;;
22015;SDS011;11172;51.698;-0.292;2022-09-09T00:48:31;11.20;;;3.75;;
22015;SDS011;11172;51.698;-0.292;2022-09-09T00:51:02;5.05;;;2.97;;
22015;SDS011;11172;51.698;-0.292;2022-09-09T00:58:31;13.27;;;4.18;;
22015;SDS011;11172;51.698;-0.292;2022-09-09T01:01:04;15.13;;;4.85;;
22015;SDS011;11172;51.698;-0.292;2022-09-09T01:03:45;9.90;;;3.42;;
22015;SDS011;11172;51.698;-0.292;2022-09-09T01:06:18;21.05;;;4.43;;
22015;SDS011;11172;51.698;-0.292;2022-09-09T01:14:14;10.85;;;2.60;;
22015;SDS011;11172;51.698;-0.292;2022-09-09T01:16:43;15.82;;;3.65;;
22015;SDS011;11172;51.698;-0.292;2022-09-09T01:19:10;9.00;;;3.38;;
22015;SDS011;11172;51.698;-0.292;2022-09-09T01:21:45;10.57;;;3.55;;
22015;SDS011;11172;51.698;-0.292;2022-09-09T01:26:56;9.95;;;3.40;;
22015;SDS011;11172;51.698;-0.292;2022-09-09T01:29:24;10.07;;;4.78;;
22015;SDS011;11172;51.698;-0.292;2022-09-09T01:34:19;14.05;;;3.65;;
22015;SDS011;11172;51.698;-0.292;2022-09-09T01:37:07;11.98;;;2.92;;
22015;SDS011;11172;51.698;-0.292;2022-09-09T01:39:32;10.48;;;2.80;;
22015;SDS011;11172;51.698;-0.292;2022-09-09T01:41:58;20.95;;;3.75;;
22015;SDS011;11172;51.698;-0.292;2022-09-09T01:44:25;11.45;;;2.42;;
22015;SDS011;11172;51.698;-0.292;2022-09-09T01:46:51;10.10;;;2.75;;
22015;SDS011;11172;51.698;-0.292;2022-09-09T01:49:17;7.38;;;3.35;;
22015;SDS011;11172;51.698;-0.292;2022-09-09T01:51:43;9.98;;;3.08;;
22015;SDS011;11172;51.698;-0.292;2022-09-09T01:54:11;5.53;;;2.53;;
22015;SDS011;11172;51.698;-0.292;2022-09-09T01:59:18;10.70;;;2.65;;
22015;SDS011;11172;51.698;-0.292;2022-09-09T02:07:02;5.93;;;3.35;;
22015;SDS011;11172;51.698;-0.292;2022-09-09T02:09:29;12.73;;;3.75;;
22015;SDS011;11172;51.698;-0.292;2022-09-09T02:12:05;7.43;;;3.50;;
22015;SDS011;11172;51.698;-0.292;2022-09-09T02:14:38;16.75;;;4.10;;
22015;SDS011;11172;51.698;-0.292;2022-09-09T02:19:33;6.68;;;3.53;;
22015;SDS011;11172;51.698;-0.292;2022-09-09T02:22:00;10.98;;;3.65;;
22015;SDS011;11172;51.698;-0.292;2022-09-09T02:24:27;7.35;;;3.28;;
22015;SDS011;11172;51.698;-0.292;2022-09-09T02:26:54;11.35;;;3.85;;
22015;SDS011;11172;51.698;-0.292;2022-09-09T02:29:30;12.32;;;3.42;;
22015;SDS011;11172;51.698;-0.292;2022-09-09T02:31:58;11.07;;;3.28;;
22015;SDS011;11172;51.698;-0.292;2022-09-09T02:34:25;19.17;;;3.90;;
22015;SDS011;11172;51.698;-0.292;2022-09-09T02:36:52;20.65;;;3.88;;
22015;SDS011;11172;51.698;-0.292;2022-09-09T02:39:19;8.20;;;4.25;;
22015;SDS011;11172;51.698;-0.292;2022-09-09T02:41:45;15.55;;;3.90;;
22015;SDS011;11172;51.698;-0.292;2022-09-09T02:44:13;11.98;;;4.72;;
22015;SDS011;11172;51.698;-0.292;2022-09-09T02:46:49;23.10;;;4.40;;
22015;SDS011;11172;51.698;-0.292;2022-09-09T02:49:19;16.45;;;3.60;;
22015;SDS011;11172;51.698;-0.292;2022-09-09T02:51:52;9.57;;;3.85;;
22015;SDS011;11172;51.698;-0.292;2022-09-09T02:56:51;7.03;;;3.90;;
22015;SDS011;11172;51.698;-0.292;2022-09-09T02:59:19;6.95;;;3.65;;
22015;SDS011;11172;51.698;-0.292;2022-09-09T03:01:45;16.98;;;4.70;;
22015;SDS011;11172;51.698;-0.292;2022-09-09T03:04:12;15.77;;;5.18;;
22015;SDS011;11172;51.698;-0.292;2022-09-09T03:06:38;17.13;;;5.10;;
22015;SDS011;11172;51.698;-0.292;2022-09-09T03:09:04;14.68;;;4.32;;
22015;SDS011;11172;51.698;-0.292;2022-09-09T03:11:30;31.92;;;5.10;;
22015;SDS011;11172;51.698;-0.292;2022-09-09T03:13:57;7.72;;;4.03;;
22015;SDS011;11172;51.698;-0.292;2022-09-09T03:16:23;16.73;;;3.72;;
22015;SDS011;11172;51.698;-0.292;2022-09-09T03:18:49;10.23;;;3.88;;
22015;SDS011;11172;51.698;-0.292;2022-09-09T03:21:15;8.05;;;4.03;;
22015;SDS011;11172;51.698;-0.292;2022-09-09T03:23:41;7.88;;;4.30;;
22015;SDS011;11172;51.698;-0.292;2022-09-09T03:26:07;15.15;;;4.05;;
22015;SDS011;11172;51.698;-0.292;2022-09-09T03:28:33;8.85;;;3.95;;
22015;SDS011;11172;51.698;-0.292;2022-09-09T03:31:00;9.77;;;3.42;;
22015;SDS011;11172;51.698;-0.292;2022-09-09T03:33:26;11.48;;;4.15;;
22015;SDS011;11172;51.698;-0.292;2022-09-09T03:35:53;10.40;;;4.13;;
22015;SDS011;11172;51.698;-0.292;2022-09-09T03:38:22;7.28;;;2.83;;
22015;SDS011;11172;51.698;-0.292;2022-09-09T03:40:51;10.32;;;3.40;;
22015;SDS011;11172;51.698;-0.292;2022-09-09T03:43:22;4.75;;;2.58;;
22015;SDS011;11172;51.698;-0.292;2022-09-09T03:45:48;10.02;;;3.50;;
22015;SDS011;11172;51.698;-0.292;2022-09-09T03:48:15;5.78;;;2.28;;
22015;SDS011;11172;51.698;-0.292;2022-09-09T03:50:48;14.18;;;3.10;;
22015;SDS011;11172;51.698;-0.292;2022-09-09T03:53:15;7.60;;;3.20;;
22015;SDS011;11172;51.698;-0.292;2022-09-09T03:55:45;9.65;;;2.42;;
22015;SDS011;11172;51.698;-0.292;2022-09-09T03:58:12;10.68;;;2.92;;
22015;SDS011;11172;51.698;-0.292;2022-09-09T04:00:38;11.25;;;2.92;;
22015;SDS011;11172;51.698;-0.292;2022-09-09T04:03:07;8.20;;;2.42;;
22015;SDS011;11172;51.698;-0.292;2022-09-09T04:05:33;8.32;;;3.00;;
22015;SDS011;11172;51.698;-0.292;2022-09-09T04:07:59;7.70;;;3.22;;
22015;SDS011;11172;51.698;-0.292;2022-09-09T04:10:25;6.07;;;3.85;;
22015;SDS011;11172;51.698;-0.292;2022-09-09T04:12:51;5.35;;;3.65;;
22015;SDS011;11172;51.698;-0.292;2022-09-09T04:15:17;12.10;;;4.38;;
22015;SDS011;11172;51.698;-0.292;2022-09-09T04:17:44;7.82;;;5.05;;
22015;SDS011;11172;51.698;-0.292;2022-09-09T04:20:10;14.70;;;4.40;;
22015;SDS011;11172;51.698;-0.292;2022-09-09T04:22:37;11.45;;;4.78;;
22015;SDS011;11172;51.698;-0.292;2022-09-09T04:25:04;11.40;;;5.50;;
22015;SDS011;11172;51.698;-0.292;2022-09-09T04:27:30;17.95;;;5.65;;
22015;SDS011;11172;51.698;-0.292;2022-09-09T04:29:57;8.82;;;5.30;;
22015;SDS011;11172;51.698;-0.292;2022-09-09T04:32:23;11.75;;;6.53;;
22015;SDS011;11172;51.698;-0.292;2022-09-09T04:34:52;9.57;;;5.38;;
22015;SDS011;11172;51.698;-0.292;2022-09-09T04:37:18;8.35;;;5.47;;
22015;SDS011;11172;51.698;-0.292;2022-09-09T04:39:44;12.00;;;6.00;;
22015;SDS011;11172;51.698;-0.292;2022-09-09T04:42:10;11.60;;;5.00;;
22015;SDS011;11172;51.698;-0.292;2022-09-09T04:44:37;18.52;;;6.97;;
22015;SDS011;11172;51.698;-0.292;2022-09-09T04:47:03;16.38;;;6.97;;
22015;SDS011;11172;51.698;-0.292;2022-09-09T04:49:29;18.90;;;8.30;;
22015;SDS011;11172;51.698;-0.292;2022-09-09T04:51:56;14.10;;;7.03;;
22015;SDS011;11172;51.698;-0.292;2022-09-09T04:54:22;14.68;;;7.10;;
22015;SDS011;11172;51.698;-0.292;2022-09-09T04:56:49;15.07;;;7.78;;
22015;SDS011;11172;51.698;-0.292;2022-09-09T04:59:15;19.50;;;7.70;;
22015;SDS011;11172;51.698;-0.292;2022-09-09T05:01:41;14.35;;;6.80;;
22015;SDS011;11172;51.698;-0.292;2022-09-09T05:04:07;19.90;;;9.32;;
22015;SDS011;11172;51.698;-0.292;2022-09-09T05:06:34;24.92;;;7.97;;
22015;SDS011;11172;51.698;-0.292;2022-09-09T05:09:01;15.18;;;6.85;;
22015;SDS011;11172;51.698;-0.292;2022-09-09T05:11:28;14.93;;;8.48;;
22015;SDS011;11172;51.698;-0.292;2022-09-09T05:13:54;18.80;;;10.38;;
22015;SDS011;11172;51.698;-0.292;2022-09-09T05:16:21;19.00;;;9.85;;
22015;SDS011;11172;51.698;-0.292;2022-09-09T05:18:48;21.55;;;9.35;;
22015;SDS011;11172;51.698;-0.292;2022-09-09T05:21:16;21.63;;;10.65;;
22015;SDS011;11172;51.698;-0.292;2022-09-09T05:23:42;20.38;;;9.45;;
22015;SDS011;11172;51.698;-0.292;2022-09-09T05:26:12;16.35;;;8.73;;
22015;SDS011;11172;51.698;-0.292;2022-09-09T05:28:38;15.45;;;9.70;;
22015;SDS011;11172;51.698;-0.292;2022-09-09T05:31:05;16.48;;;10.00;;
22015;SDS011;11172;51.698;-0.292;2022-09-09T05:33:36;16.40;;;8.50;;
22015;SDS011;11172;51.698;-0.292;2022-09-09T05:36:06;15.70;;;8.30;;
22015;SDS011;11172;51.698;-0.292;2022-09-09T05:38:33;19.60;;;8.05;;
22015;SDS011;11172;51.698;-0.292;2022-09-09T05:40:59;15.02;;;7.07;;
22015;SDS011;11172;51.698;-0.292;2022-09-09T05:43:26;14.15;;;6.43;;
22015;SDS011;11172;51.698;-0.292;2022-09-09T05:46:26;11.32;;;7.25;;
22015;SDS011;11172;51.698;-0.292;2022-09-09T05:48:46;8.98;;;5.32;;
22015;SDS011;11172;51.698;-0.292;2022-09-09T05:51:13;18.30;;;6.45;;
22015;SDS011;11172;51.698;-0.292;2022-09-09T05:53:43;12.20;;;6.18;;
22015;SDS011;11172;51.698;-0.292;2022-09-09T05:56:13;12.27;;;5.70;;
22015;SDS011;11172;51.698;-0.292;2022-09-09T05:58:40;11.52;;;6.47;;
22015;SDS011;11172;51.698;-0.292;2022-09-09T06:01:27;16.02;;;6.28;;
22015;SDS011;11172;51.698;-0.292;2022-09-09T06:03:53;30.67;;;6.78;;
22015;SDS011;11172;51.698;-0.292;2022-09-09T06:06:20;10.73;;;6.40;;
22015;SDS011;11172;51.698;-0.292;2022-09-09T06:08:47;20.90;;;6.53;;
22015;SDS011;11172;51.698;-0.292;2022-09-09T06:11:18;9.90;;;6.28;;
22015;SDS011;11172;51.698;-0.292;2022-09-09T06:13:44;14.90;;;5.03;;
22015;SDS011;11172;51.698;-0.292;2022-09-09T06:16:11;13.88;;;6.45;;
22015;SDS011;11172;51.698;-0.292;2022-09-09T06:18:38;8.98;;;5.05;;
22015;SDS011;11172;51.698;-0.292;2022-09-09T06:21:05;12.38;;;6.10;;
22015;SDS011;11172;51.698;-0.292;2022-09-09T06:23:31;14.82;;;6.05;;
22015;SDS011;11172;51.698;-0.292;2022-09-09T06:26:04;11.05;;;5.00;;
22015;SDS011;11172;51.698;-0.292;2022-09-09T06:28:31;10.43;;;5.22;;
22015;SDS011;11172;51.698;-0.292;2022-09-09T06:30:57;14.30;;;6.40;;
22015;SDS011;11172;51.698;-0.292;2022-09-09T06:33:23;20.83;;;5.72;;
22015;SDS011;11172;51.698;-0.292;2022-09-09T06:35:52;7.20;;;5.03;;
22015;SDS011;11172;51.698;-0.292;2022-09-09T06:38:19;22.25;;;6.53;;
22015;SDS011;11172;51.698;-0.292;2022-09-09T06:40:56;12.93;;;5.38;;
22015;SDS011;11172;51.698;-0.292;2022-09-09T06:43:23;9.60;;;5.15;;
22015;SDS011;11172;51.698;-0.292;2022-09-09T06:45:55;15.43;;;5.20;;
22015;SDS011;11172;51.698;-0.292;2022-09-09T06:48:22;13.98;;;5.63;;
22015;SDS011;11172;51.698;-0.292;2022-09-09T06:50:48;8.85;;;5.80;;
22015;SDS011;11172;51.698;-0.292;2022-09-09T06:53:17;12.05;;;6.10;;
22015;SDS011;11172;51.698;-0.292;2022-09-09T06:55:44;8.18;;;5.50;;
22015;SDS011;11172;51.698;-0.292;2022-09-09T06:58:10;8.48;;;4.78;;
22015;SDS011;11172;51.698;-0.292;2022-09-09T07:00:36;17.95;;;6.55;;
22015;SDS011;11172;51.698;-0.292;2022-09-09T07:03:03;12.20;;;5.00;;
22015;SDS011;11172;51.698;-0.292;2022-09-09T07:05:31;14.40;;;6.32;;
22015;SDS011;11172;51.698;-0.292;2022-09-09T07:07:57;14.15;;;5.68;;
22015;SDS011;11172;51.698;-0.292;2022-09-09T07:10:23;9.13;;;6.00;;
22015;SDS011;11172;51.698;-0.292;2022-09-09T07:12:52;9.82;;;4.97;;
22015;SDS011;11172;51.698;-0.292;2022-09-09T07:15:19;8.98;;;5.43;;
22015;SDS011;11172;51.698;-0.292;2022-09-09T07:17:45;8.68;;;5.47;;
22015;SDS011;11172;51.698;-0.292;2022-09-09T07:20:11;17.90;;;6.55;;
22015;SDS011;11172;51.698;-0.292;2022-09-09T07:22:38;11.70;;;6.05;;
22015;SDS011;11172;51.698;-0.292;2022-09-09T07:25:04;13.95;;;5.55;;
22015;SDS011;11172;51.698;-0.292;2022-09-09T07:27:31;7.43;;;4.63;;
22015;SDS011;11172;51.698;-0.292;2022-09-09T07:29:57;12.48;;;5.55;;
22015;SDS011;11172;51.698;-0.292;2022-09-09T07:32:23;15.07;;;5.47;;
22015;SDS011;11172;51.698;-0.292;2022-09-09T07:34:50;8.77;;;5.20;;
22015;SDS011;11172;51.698;-0.292;2022-09-09T07:37:16;10.60;;;5.22;;
22015;SDS011;11172;51.698;-0.292;2022-09-09T07:39:43;20.60;;;6.00;;
22015;SDS011;11172;51.698;-0.292;2022-09-09T07:42:09;11.93;;;5.25;;
22015;SDS011;11172;51.698;-0.292;2022-09-09T07:44:36;17.35;;;6.00;;
22015;SDS011;11172;51.698;-0.292;2022-09-09T07:47:04;20.55;;;6.07;;
22015;SDS011;11172;51.698;-0.292;2022-09-09T07:49:31;9.18;;;5.20;;
22015;SDS011;11172;51.698;-0.292;2022-09-09T07:51:57;8.20;;;4.93;;
22015;SDS011;11172;51.698;-0.292;2022-09-09T07:54:23;6.97;;;5.07;;
22015;SDS011;11172;51.698;-0.292;2022-09-09T07:56:50;8.10;;;5.45;;
22015;SDS011;11172;51.698;-0.292;2022-09-09T07:59:16;18.33;;;5.47;;
22015;SDS011;11172;51.698;-0.292;2022-09-09T08:01:43;8.40;;;5.25;;
22015;SDS011;11172;51.698;-0.292;2022-09-09T08:04:11;8.00;;;4.30;;
22015;SDS011;11172;51.698;-0.292;2022-09-09T08:06:41;7.20;;;4.38;;
22015;SDS011;11172;51.698;-0.292;2022-09-09T08:09:08;6.63;;;4.97;;
22015;SDS011;11172;51.698;-0.292;2022-09-09T08:11:35;8.15;;;4.53;;
22015;SDS011;11172;51.698;-0.292;2022-09-09T08:14:01;5.65;;;4.78;;
22015;SDS011;11172;51.698;-0.292;2022-09-09T08:16:28;8.57;;;4.30;;
22015;SDS011;11172;51.698;-0.292;2022-09-09T08:18:55;9.73;;;4.72;;
22015;SDS011;11172;51.698;-0.292;2022-09-09T08:21:23;6.70;;;4.00;;
22015;SDS011;11172;51.698;-0.292;2022-09-09T08:23:52;10.65;;;5.18;;
22015;SDS011;11172;51.698;-0.292;2022-09-09T08:26:28;13.70;;;4.43;;
22015;SDS011;11172;51.698;-0.292;2022-09-09T08:28:55;8.32;;;5.45;;
22015;SDS011;11172;51.698;-0.292;2022-09-09T08:31:23;12.55;;;5.20;;
22015;SDS011;11172;51.698;-0.292;2022-09-09T08:33:49;13.10;;;4.78;;
22015;SDS011;11172;51.698;-0.292;2022-09-09T08:36:23;8.65;;;5.55;;
22015;SDS011;11172;51.698;-0.292;2022-09-09T08:38:51;13.07;;;5.88;;
22015;SDS011;11172;51.698;-0.292;2022-09-09T08:43:51;7.03;;;4.85;;
22015;SDS011;11172;51.698;-0.292;2022-09-09T08:49:43;12.02;;;6.53;;
22015;SDS011;11172;51.698;-0.292;2022-09-09T08:51:49;10.40;;;5.47;;
22015;SDS011;11172;51.698;-0.292;2022-09-09T08:54:15;11.18;;;6.00;;
22015;SDS011;11172;51.698;-0.292;2022-09-09T08:56:42;13.48;;;6.03;;
22015;SDS011;11172;51.698;-0.292;2022-09-09T08:59:09;9.15;;;5.20;;
22015;SDS011;11172;51.698;-0.292;2022-09-09T09:01:45;12.85;;;5.90;;
22015;SDS011;11172;51.698;-0.292;2022-09-09T09:07:15;11.45;;;6.50;;
22015;SDS011;11172;51.698;-0.292;2022-09-09T09:09:48;13.13;;;7.05;;
22015;SDS011;11172;51.698;-0.292;2022-09-09T09:12:19;10.63;;;7.22;;
22015;SDS011;11172;51.698;-0.292;2022-09-09T09:14:46;13.75;;;6.65;;
22015;SDS011;11172;51.698;-0.292;2022-09-09T09:17:14;11.65;;;7.38;;
22015;SDS011;11172;51.698;-0.292;2022-09-09T09:19:40;11.13;;;7.32;;
22015;SDS011;11172;51.698;-0.292;2022-09-09T09:22:13;9.50;;;6.05;;
22015;SDS011;11172;51.698;-0.292;2022-09-09T09:27:20;15.77;;;7.80;;
22015;SDS011;11172;51.698;-0.292;2022-09-09T09:29:47;13.60;;;7.85;;
22015;SDS011;11172;51.698;-0.292;2022-09-09T09:32:15;20.65;;;13.73;;
22015;SDS011;11172;51.698;-0.292;2022-09-09T09:34:42;19.65;;;12.45;;
22015;SDS011;11172;51.698;-0.292;2022-09-09T09:37:23;22.20;;;11.43;;
22015;SDS011;11172;51.698;-0.292;2022-09-09T09:39:52;16.80;;;10.88;;
22015;SDS011;11172;51.698;-0.292;2022-09-09T09:42:18;12.63;;;9.43;;
22015;SDS011;11172;51.698;-0.292;2022-09-09T09:44:44;11.60;;;7.47;;
22015;SDS011;11172;51.698;-0.292;2022-09-09T09:47:14;15.70;;;9.10;;
22015;SDS011;11172;51.698;-0.292;2022-09-09T09:49:53;13.15;;;8.05;;
22015;SDS011;11172;51.698;-0.292;2022-09-09T09:52:24;13.95;;;7.68;;
22015;SDS011;11172;51.698;-0.292;2022-09-09T09:54:50;12.70;;;7.28;;
22015;SDS011;11172;51.698;-0.292;2022-09-09T09:57:17;12.50;;;7.90;;
22015;SDS011;11172;51.698;-0.292;2022-09-09T09:59:43;16.83;;;8.18;;
22015;SDS011;11172;51.698;-0.292;2022-09-09T10:04:38;11.60;;;7.43;;
22015;SDS011;11172;51.698;-0.292;2022-09-09T10:07:15;12.35;;;8.10;;
22015;SDS011;11172;51.698;-0.292;2022-09-09T10:09:42;10.55;;;6.63;;
22015;SDS011;11172;51.698;-0.292;2022-09-09T10:17:18;11.85;;;7.13;;
22015;SDS011;11172;51.698;-0.292;2022-09-09T10:22:27;12.88;;;7.72;;
22015;SDS011;11172;51.698;-0.292;2022-09-09T10:30:04;12.05;;;7.50;;
22015;SDS011;11172;51.698;-0.292;2022-09-09T10:38:11;14.00;;;5.72;;
22015;SDS011;11172;51.698;-0.292;2022-09-09T10:48:46;6.22;;;4.50;;
22015;SDS011;11172;51.698;-0.292;2022-09-09T10:56:16;8.68;;;6.05;;
22015;SDS011;11172;51.698;-0.292;2022-09-09T10:58:48;10.93;;;6.20;;
22015;SDS011;11172;51.698;-0.292;2022-09-09T11:01:19;11.85;;;6.93;;
22015;SDS011;11172;51.698;-0.292;2022-09-09T11:03:47;12.63;;;7.35;;
22015;SDS011;11172;51.698;-0.292;2022-09-09T11:06:16;10.48;;;6.60;;
22015;SDS011;11172;51.698;-0.292;2022-09-09T11:08:44;10.68;;;6.57;;
22015;SDS011;11172;51.698;-0.292;2022-09-09T11:16:33;13.43;;;9.02;;
22015;SDS011;11172;51.698;-0.292;2022-09-09T11:19:08;13.82;;;7.50;;
22015;SDS011;11172;51.698;-0.292;2022-09-09T11:21:38;11.25;;;7.78;;
22015;SDS011;11172;51.698;-0.292;2022-09-09T11:24:10;12.07;;;8.63;;
22015;SDS011;11172;51.698;-0.292;2022-09-09T11:26:41;15.13;;;9.13;;
22015;SDS011;11172;51.698;-0.292;2022-09-09T11:31:45;11.13;;;7.80;;
22015;SDS011;11172;51.698;-0.292;2022-09-09T11:36:56;11.82;;;8.20;;
22015;SDS011;11172;51.698;-0.292;2022-09-09T11:44:37;11.73;;;7.75;;
22015;SDS011;11172;51.698;-0.292;2022-09-09T11:47:03;11.45;;;8.00;;
22015;SDS011;11172;51.698;-0.292;2022-09-09T11:49:39;12.15;;;7.68;;
22015;SDS011;11172;51.698;-0.292;2022-09-09T11:52:19;13.00;;;8.45;;
22015;SDS011;11172;51.698;-0.292;2022-09-09T11:54:47;15.88;;;8.45;;
22015;SDS011;11172;51.698;-0.292;2022-09-09T11:57:33;11.95;;;8.15;;
22015;SDS011;11172;51.698;-0.292;2022-09-09T12:00:00;12.30;;;8.02;;
22015;SDS011;11172;51.698;-0.292;2022-09-09T12:07:30;9.83;;;7.43;;
22015;SDS011;11172;51.698;-0.292;2022-09-09T12:12:25;13.95;;;6.55;;
22015;SDS011;11172;51.698;-0.292;2022-09-09T12:14:59;8.57;;;6.30;;
22015;SDS011;11172;51.698;-0.292;2022-09-09T12:20:08;9.93;;;7.03;;
22015;SDS011;11172;51.698;-0.292;2022-09-09T12:25:13;14.63;;;6.30;;
22015;SDS011;11172;51.698;-0.292;2022-09-09T12:30:35;8.57;;;5.28;;
22015;SDS011;11172;51.698;-0.292;2022-09-09T12:33:07;7.53;;;5.40;;
22015;SDS011;11172;51.698;-0.292;2022-09-09T12:35:34;6.75;;;4.28;;
22015;SDS011;11172;51.698;-0.292;2022-09-09T12:38:03;7.28;;;4.28;;
22015;SDS011;11172;51.698;-0.292;2022-09-09T12:40:34;9.07;;;5.05;;
22015;SDS011;11172;51.698;-0.292;2022-09-09T12:43:24;9.18;;;4.60;;
22015;SDS011;11172;51.698;-0.292;2022-09-09T12:45:49;10.32;;;5.38;;
22015;SDS011;11172;51.698;-0.292;2022-09-09T12:48:27;8.65;;;4.65;;
22015;SDS011;11172;51.698;-0.292;2022-09-09T12:50:54;9.30;;;5.30;;
22015;SDS011;11172;51.698;-0.292;2022-09-09T12:53:25;9.57;;;4.80;;
22015;SDS011;11172;51.698;-0.292;2022-09-09T12:56:00;5.07;;;3.70;;
22015;SDS011;11172;51.698;-0.292;2022-09-09T12:58:31;6.47;;;4.18;;
22015;SDS011;11172;51.698;-0.292;2022-09-09T13:00:58;6.40;;;4.13;;
22015;SDS011;11172;51.698;-0.292;2022-09-09T13:03:24;10.82;;;3.75;;
22015;SDS011;11172;51.698;-0.292;2022-09-09T13:05:51;6.43;;;4.15;;
22015;SDS011;11172;51.698;-0.292;2022-09-09T13:08:18;8.05;;;4.13;;
22015;SDS011;11172;51.698;-0.292;2022-09-09T13:10:51;7.00;;;3.30;;
22015;SDS011;11172;51.698;-0.292;2022-09-09T13:13:21;6.10;;;3.42;;
22015;SDS011;11172;51.698;-0.292;2022-09-09T13:15:51;9.77;;;3.92;;
22015;SDS011;11172;51.698;-0.292;2022-09-09T13:18:19;5.43;;;3.55;;
22015;SDS011;11172;51.698;-0.292;2022-09-09T13:20:48;4.95;;;3.63;;
22015;SDS011;11172;51.698;-0.292;2022-09-09T13:23:14;5.53;;;3.33;;
22015;SDS011;11172;51.698;-0.292;2022-09-09T13:25:42;5.47;;;3.13;;
22015;SDS011;11172;51.698;-0.292;2022-09-09T13:28:20;7.13;;;2.70;;
22015;SDS011;11172;51.698;-0.292;2022-09-09T13:30:54;5.28;;;3.00;;
22015;SDS011;11172;51.698;-0.292;2022-09-09T13:33:24;3.72;;;2.08;;
22015;SDS011;11172;51.698;-0.292;2022-09-09T13:35:55;4.70;;;2.25;;
22015;SDS011;11172;51.698;-0.292;2022-09-09T13:38:22;7.22;;;2.45;;
22015;SDS011;11172;51.698;-0.292;2022-09-09T13:43:28;4.47;;;2.25;;
22015;SDS011;11172;51.698;-0.292;2022-09-09T13:45:56;3.83;;;2.25;;
22015;SDS011;11172;51.698;-0.292;2022-09-09T13:48:23;5.80;;;2.45;;
22015;SDS011;11172;51.698;-0.292;2022-09-09T13:51:02;1.80;;;1.50;;
22015;SDS011;11172;51.698;-0.292;2022-09-09T13:53:30;2.13;;;1.88;;
22015;SDS011;11172;51.698;-0.292;2022-09-09T13:55:57;1.83;;;1.73;;
22015;SDS011;11172;51.698;-0.292;2022-09-09T13:58:23;3.70;;;1.73;;
22015;SDS011;11172;51.698;-0.292;2022-09-09T14:00:50;6.15;;;1.73;;
22015;SDS011;11172;51.698;-0.292;2022-09-09T14:03:17;1.73;;;1.42;;
22015;SDS011;11172;51.698;-0.292;2022-09-09T14:05:43;12.30;;;1.50;;
22015;SDS011;11172;51.698;-0.292;2022-09-09T14:08:11;2.25;;;1.42;;
22015;SDS011;11172;51.698;-0.292;2022-09-09T14:10:40;7.97;;;1.42;;
22015;SDS011;11172;51.698;-0.292;2022-09-09T14:13:06;2.95;;;1.60;;
22015;SDS011;11172;51.698;-0.292;2022-09-09T14:15:33;3.90;;;1.60;;
22015;SDS011;11172;51.698;-0.292;2022-09-09T14:17:59;1.80;;;1.60;;
22015;SDS011;11172;51.698;-0.292;2022-09-09T14:20:25;2.55;;;1.67;;
22015;SDS011;11172;51.698;-0.292;2022-09-09T14:22:51;1.98;;;1.20;;
22015;SDS011;11172;51.698;-0.292;2022-09-09T14:25:18;1.23;;;1.13;;
22015;SDS011;11172;51.698;-0.292;2022-09-09T14:27:44;2.47;;;1.60;;
22015;SDS011;11172;51.698;-0.292;2022-09-09T14:30:11;6.03;;;2.00;;
22015;SDS011;11172;51.698;-0.292;2022-09-09T14:32:37;1.77;;;1.42;;
22015;SDS011;11172;51.698;-0.292;2022-09-09T14:35:03;3.28;;;1.90;;
22015;SDS011;11172;51.698;-0.292;2022-09-09T14:37:29;2.78;;;1.88;;
22015;SDS011;11172;51.698;-0.292;2022-09-09T14:39:56;2.85;;;1.75;;
22015;SDS011;11172;51.698;-0.292;2022-09-09T14:42:22;3.08;;;2.08;;
22015;SDS011;11172;51.698;-0.292;2022-09-09T14:44:48;4.85;;;1.90;;
22015;SDS011;11172;51.698;-0.292;2022-09-09T14:47:14;4.53;;;2.20;;
22015;SDS011;11172;51.698;-0.292;2022-09-09T14:49:40;3.67;;;2.20;;
22015;SDS011;11172;51.698;-0.292;2022-09-09T14:52:06;3.42;;;2.33;;
22015;SDS011;11172;51.698;-0.292;2022-09-09T14:54:34;3.28;;;2.50;;
22015;SDS011;11172;51.698;-0.292;2022-09-09T14:57:00;4.38;;;2.75;;
22015;SDS011;11172;51.698;-0.292;2022-09-09T14:59:26;2.80;;;2.05;;
22015;SDS011;11172;51.698;-0.292;2022-09-09T15:01:51;5.15;;;2.60;;
22015;SDS011;11172;51.698;-0.292;2022-09-09T15:04:18;2.22;;;2.08;;
22015;SDS011;11172;51.698;-0.292;2022-09-09T15:06:45;3.28;;;2.25;;
22015;SDS011;11172;51.698;-0.292;2022-09-09T15:09:13;5.15;;;2.35;;
22015;SDS011;11172;51.698;-0.292;2022-09-09T15:11:40;2.92;;;2.15;;
22015;SDS011;11172;51.698;-0.292;2022-09-09T15:14:07;3.78;;;1.70;;
22015;SDS011;11172;51.698;-0.292;2022-09-09T15:16:34;4.97;;;2.67;;
22015;SDS011;11172;51.698;-0.292;2022-09-09T15:19:00;2.33;;;1.38;;
22015;SDS011;11172;51.698;-0.292;2022-09-09T15:21:28;2.53;;;1.63;;
22015;SDS011;11172;51.698;-0.292;2022-09-09T15:23:54;2.83;;;1.90;;
22015;SDS011;11172;51.698;-0.292;2022-09-09T15:26:20;1.88;;;1.77;;
22015;SDS011;11172;51.698;-0.292;2022-09-09T15:28:47;3.72;;;1.83;;
22015;SDS011;11172;51.698;-0.292;2022-09-09T15:31:21;2.65;;;2.00;;
22015;SDS011;11172;51.698;-0.292;2022-09-09T15:33:51;2.20;;;1.70;;
22015;SDS011;11172;51.698;-0.292;2022-09-09T15:38:43;3.78;;;1.75;;
22015;SDS011;11172;51.698;-0.292;2022-09-09T15:41:10;1.80;;;1.60;;
22015;SDS011;11172;51.698;-0.292;2022-09-09T15:43:37;2.17;;;1.33;;
22015;SDS011;11172;51.698;-0.292;2022-09-09T15:48:52;5.20;;;1.70;;
22015;SDS011;11172;51.698;-0.292;2022-09-09T15:51:19;3.55;;;1.30;;
22015;SDS011;11172;51.698;-0.292;2022-09-09T15:53:46;1.70;;;1.38;;
22015;SDS011;11172;51.698;-0.292;2022-09-09T15:56:12;2.58;;;1.80;;
22015;SDS011;11172;51.698;-0.292;2022-09-09T15:58:39;3.95;;;1.88;;
22015;SDS011;11172;51.698;-0.292;2022-09-09T16:01:05;1.92;;;1.42;;
22015;SDS011;11172;51.698;-0.292;2022-09-09T16:03:35;2.13;;;1.75;;
22015;SDS011;11172;51.698;-0.292;2022-09-09T16:08:34;6.53;;;0.98;;
22015;SDS011;11172;51.698;-0.292;2022-09-09T16:11:04;1.85;;;0.90;;
22015;SDS011;11172;51.698;-0.292;2022-09-09T16:13:32;2.50;;;1.27;;
22015;SDS011;11172;51.698;-0.292;2022-09-09T16:15:58;3.50;;;1.08;;
22015;SDS011;11172;51.698;-0.292;2022-09-09T16:18:24;3.10;;;1.00;;
22015;SDS011;11172;51.698;-0.292;2022-09-09T16:20:54;2.35;;;1.05;;
22015;SDS011;11172;51.698;-0.292;2022-09-09T16:23:20;2.75;;;1.35;;
22015;SDS011;11172;51.698;-0.292;2022-09-09T16:25:53;5.95;;;1.85;;
22015;SDS011;11172;51.698;-0.292;2022-09-09T16:30:45;1.85;;;0.98;;
22015;SDS011;11172;51.698;-0.292;2022-09-09T16:33:11;2.10;;;0.98;;
22015;SDS011;11172;51.698;-0.292;2022-09-09T16:35:39;2.13;;;1.27;;
22015;SDS011;11172;51.698;-0.292;2022-09-09T16:38:05;2.83;;;1.40;;
22015;SDS011;11172;51.698;-0.292;2022-09-09T16:40:37;1.92;;;1.20;;
22015;SDS011;11172;51.698;-0.292;2022-09-09T16:43:04;1.42;;;1.20;;
22015;SDS011;11172;51.698;-0.292;2022-09-09T16:45:31;2.95;;;1.40;;